Time;durP1;ratioP1;P1;durP2;ratioP2;P2;SDS_P1;SDS_P2;PMS_P1;PMS_P2;Temp;Humidity;BMP_temperature;BMP_pressure;BME280_temperature;BME280_humidity;BME280_pressure;Samples;Min_cycle;Max_cycle;Signal;HPM_P1;HPM_P2
2023/05/17 00:00:44;;;;;;;25.65;7.47;;;;;;;6.03;100.00;102340.13;5093484;28;20034;-54
2023/05/17 00:03:10;;;;;;;20.60;7.63;;;;;;;5.94;100.00;102339.41;5092773;28;20020;-55
2023/05/17 00:05:35;;;;;;;21.20;7.50;;;;;;;5.92;100.00;102336.72;5092961;28;20537;-55
2023/05/17 00:08:00;;;;;;;19.42;7.90;;;;;;;5.93;100.00;102338.50;5093418;28;20031;-53
2023/05/17 00:10:26;;;;;;;21.30;7.43;;;;;;;5.84;100.00;102340.41;5092419;28;20020;-56
2023/05/17 00:12:51;;;;;;;22.98;7.70;;;;;;;5.91;100.00;102350.31;5093417;28;20441;-55
2023/05/17 00:15:16;;;;;;;16.73;7.78;;;;;;;5.90;100.00;102348.53;5092996;28;20028;-56
2023/05/17 00:17:41;;;;;;;19.23;8.25;;;;;;;5.94;100.00;102344.53;5092231;28;20446;-54
2023/05/17 00:20:07;;;;;;;18.05;7.68;;;;;;;5.85;100.00;102348.97;5093222;28;20533;-55
2023/05/17 00:22:32;;;;;;;20.42;7.60;;;;;;;5.80;100.00;102345.19;5092712;28;20099;-55
2023/05/17 00:24:58;;;;;;;22.25;9.02;;;;;;;5.88;100.00;102344.09;5092275;28;20021;-55
2023/05/17 00:27:23;;;;;;;22.00;8.60;;;;;;;5.80;100.00;102346.09;5092918;28;20065;-56
2023/05/17 00:29:49;;;;;;;37.80;8.75;;;;;;;5.83;100.00;102338.63;5093187;28;20047;-55
2023/05/17 00:32:14;;;;;;;24.15;8.30;;;;;;;5.84;100.00;102344.66;5092393;28;20047;-55
2023/05/17 00:34:40;;;;;;;25.00;8.80;;;;;;;5.80;100.00;102346.09;5092841;28;20031;-54
2023/05/17 00:37:05;;;;;;;23.60;8.85;;;;;;;5.73;100.00;102342.19;5092276;28;20020;-56
2023/05/17 00:39:30;;;;;;;21.67;9.10;;;;;;;5.84;100.00;102340.41;5092481;28;20036;-56
2023/05/17 00:41:56;;;;;;;19.55;8.68;;;;;;;5.74;100.00;102346.50;5093017;28;20028;-54
2023/05/17 00:44:21;;;;;;;22.35;9.13;;;;;;;5.73;100.00;102341.28;5091813;28;20032;-55
2023/05/17 00:46:46;;;;;;;21.95;9.18;;;;;;;5.81;100.00;102339.28;5093189;28;20020;-54
2023/05/17 00:49:11;;;;;;;23.27;8.77;;;;;;;5.67;100.00;102333.16;5092942;28;20421;-55
2023/05/17 00:51:38;;;;;;;23.95;9.48;;;;;;;5.60;100.00;102344.59;5094736;28;20032;-55
2023/05/17 00:54:04;;;;;;;25.50;9.40;;;;;;;5.65;100.00;102339.84;5096944;28;20032;-55
2023/05/17 00:56:30;;;;;;;25.75;9.63;;;;;;;5.69;100.00;102337.59;5096766;28;20017;-55
2023/05/17 00:58:56;;;;;;;21.58;10.48;;;;;;;5.74;100.00;102330.28;5095852;28;20467;-54
2023/05/17 01:01:21;;;;;;;22.75;10.73;;;;;;;5.69;100.00;102331.59;5096557;28;20115;-54
2023/05/17 01:03:47;;;;;;;26.05;10.98;;;;;;;5.68;100.00;102330.72;5096725;28;20091;-55
2023/05/17 01:06:13;;;;;;;23.25;9.10;;;;;;;5.64;100.00;102338.94;5095840;28;20425;-55
2023/05/17 01:08:38;;;;;;;24.95;10.45;;;;;;;5.72;100.00;102342.06;5096498;28;20016;-55
2023/05/17 01:11:35;;;;;;;24.60;9.85;;;;;;;5.64;100.00;102345.72;5096609;28;20063;-54
2023/05/17 01:14:15;;;;;;;25.17;10.40;;;;;;;5.72;100.00;102331.81;5095893;28;20066;-55
2023/05/17 01:16:54;;;;;;;27.23;11.02;;;;;;;5.72;100.00;102329.25;5096393;28;20054;-55
2023/05/17 01:19:59;;;;;;;21.45;10.32;;;;;;;5.68;100.00;102340.06;5095553;28;20043;-56
2023/05/17 01:22:24;;;;;;;22.33;10.02;;;;;;;5.69;100.00;102336.72;5096048;28;20571;-55
2023/05/17 01:25:12;;;;;;;22.10;9.53;;;;;;;5.52;100.00;102345.72;5096299;28;20052;-55
2023/05/17 01:27:40;;;;;;;21.95;10.07;;;;;;;5.50;100.00;102353.28;5095472;28;20290;-55
2023/05/17 01:30:11;;;;;;;28.17;9.63;;;;;;;5.41;100.00;102348.38;5096458;28;20020;-56
2023/05/17 01:32:40;;;;;;;24.92;10.88;;;;;;;5.47;100.00;102350.47;5096036;28;20028;-55
2023/05/17 01:35:05;;;;;;;25.10;11.25;;;;;;;5.57;100.00;102345.28;5095541;28;20032;-54
2023/05/17 01:37:30;;;;;;;26.27;11.80;;;;;;;5.53;100.00;102345.81;5095663;28;20028;-55
2023/05/17 01:39:56;;;;;;;31.67;11.95;;;;;;;5.56;100.00;102338.38;5095805;28;20028;-55
2023/05/17 01:42:25;;;;;;;25.92;12.13;;;;;;;5.61;100.00;102342.16;5095230;28;20058;-55
2023/05/17 01:45:20;;;;;;;33.88;12.10;;;;;;;5.63;100.00;102342.28;5096097;28;20077;-54
2023/05/17 01:48:04;;;;;;;30.83;11.45;;;;;;;5.58;100.00;102346.19;5095282;28;20024;-55
2023/05/17 01:50:32;;;;;;;25.10;10.85;;;;;;;5.58;100.00;102341.94;5095510;28;20391;-55
2023/05/17 01:53:03;;;;;;;26.85;11.85;;;;;;;5.60;100.00;102342.97;5095977;28;20108;-54
2023/05/17 01:55:50;;;;;;;28.40;11.77;;;;;;;5.65;100.00;102342.41;5094796;28;20036;-56
2023/05/17 01:58:18;;;;;;;30.17;12.05;;;;;;;5.75;100.00;102337.19;5095421;28;20024;-55
2023/05/17 02:00:45;;;;;;;27.75;11.93;;;;;;;5.57;100.00;102350.38;5095654;28;20059;-55
2023/05/17 02:03:11;;;;;;;;;;;;;;;5.65;100.00;102358.63;5094722;28;20070;-55
2023/05/17 02:05:36;;;;;;;24.35;11.10;;;;;;;5.53;100.00;102356.06;5095412;28;19912;-55
2023/05/17 02:08:02;;;;;;;28.33;12.35;;;;;;;5.42;100.00;102344.13;5095593;28;20039;-56
2023/05/17 02:10:28;;;;;;;28.55;13.73;;;;;;;5.61;100.00;102341.28;5094476;28;20434;-54
2023/05/17 02:12:53;;;;;;;25.60;11.45;;;;;;;5.52;100.00;102340.59;5095530;28;20024;-54
2023/05/17 02:15:18;;;;;;;31.52;12.55;;;;;;;5.55;100.00;102341.72;5095123;28;20058;-53
2023/05/17 02:17:44;;;;;;;35.13;13.23;;;;;;;5.56;100.00;102340.91;5094463;28;20387;-55
2023/05/17 02:20:10;;;;;;;27.20;12.52;;;;;;;5.46;100.00;102337.59;5095234;28;20477;-54
2023/05/17 02:22:36;;;;;;;28.67;14.38;;;;;;;5.60;100.00;102332.72;5094348;28;20093;-55
2023/05/17 02:25:01;;;;;;;25.88;13.25;;;;;;;5.44;100.00;102334.91;5095376;28;20024;-55
2023/05/17 02:27:26;;;;;;;26.13;13.13;;;;;;;5.55;100.00;102336.63;5095122;28;20080;-54
2023/05/17 02:29:52;;;;;;;31.30;13.90;;;;;;;5.53;100.00;102327.91;5094343;28;20058;-55
2023/05/17 02:32:17;;;;;;;27.83;13.77;;;;;;;5.58;100.00;102338.50;5095010;28;20025;-54
2023/05/17 02:34:42;;;;;;;32.08;13.93;;;;;;;5.58;100.00;102344.50;5095167;28;20379;-54
2023/05/17 02:37:07;;;;;;;27.45;13.35;;;;;;;5.44;100.00;102351.13;5094375;28;20073;-56
2023/05/17 02:39:33;;;;;;;23.63;13.05;;;;;;;5.46;100.00;102351.25;5094496;28;20372;-54
2023/05/17 02:41:58;;;;;;;33.22;15.20;;;;;;;5.61;100.00;102354.94;5094815;28;20056;-55
2023/05/17 02:44:23;;;;;;;28.58;14.68;;;;;;;5.56;100.00;102356.28;5093701;28;20103;-55
2023/05/17 02:46:49;;;;;;;38.20;15.95;;;;;;;5.69;100.00;102359.75;5094650;28;20028;-54
2023/05/17 02:49:14;;;;;;;34.83;16.70;;;;;;;5.77;100.00;102350.97;5094920;28;20059;-54
2023/05/17 02:51:39;;;;;;;39.25;17.00;;;;;;;5.82;100.00;102352.19;5093734;28;20510;-55
2023/05/17 02:54:05;;;;;;;33.90;16.20;;;;;;;5.92;100.00;102359.75;5094656;28;20076;-54
2023/05/17 02:56:30;;;;;;;32.42;15.60;;;;;;;5.97;100.00;102359.22;5094473;28;20031;-55
2023/05/17 02:58:56;;;;;;;33.30;15.75;;;;;;;5.97;100.00;102354.97;5093713;28;20028;-55
2023/05/17 03:01:22;;;;;;;33.78;16.50;;;;;;;6.05;100.00;102359.00;5094083;28;20016;-54
2023/05/17 03:03:47;;;;;;;33.25;15.05;;;;;;;6.07;100.00;102361.72;5094572;28;20032;-54
2023/05/17 03:06:13;;;;;;;35.03;16.52;;;;;;;6.15;100.00;102368.25;5093527;28;20052;-54
2023/05/17 03:08:39;;;;;;;39.35;17.10;;;;;;;6.22;100.00;102362.81;5094042;28;20031;-55
2023/05/17 03:11:04;;;;;;;37.15;16.13;;;;;;;6.24;100.00;102371.47;5094280;28;20016;-54
2023/05/17 03:13:30;;;;;;;36.20;15.77;;;;;;;6.31;100.00;102371.91;5093068;28;20024;-55
2023/05/17 03:15:56;;;;;;;35.78;15.48;;;;;;;6.35;100.00;102363.66;5094397;28;20024;-55
2023/05/17 03:18:21;;;;;;;30.05;14.85;;;;;;;6.36;100.00;102375.69;5093666;28;20051;-55
2023/05/17 03:20:46;;;;;;;34.25;15.52;;;;;;;6.41;100.00;102374.34;5093531;28;20020;-55
2023/05/17 03:23:12;;;;;;;37.17;16.35;;;;;;;6.47;100.00;102377.34;5094167;28;20103;-54
2023/05/17 03:25:37;;;;;;;38.42;15.75;;;;;;;6.48;100.00;102376.59;5093600;28;20043;-55
2023/05/17 03:28:02;;;;;;;43.50;15.90;;;;;;;6.55;100.00;102368.53;5093103;28;20082;-54
2023/05/17 03:30:27;;;;;;;30.10;15.15;;;;;;;6.60;100.00;102368.88;5093795;28;20020;-55
2023/05/17 03:32:53;;;;;;;32.33;14.60;;;;;;;6.62;100.00;102381.78;5093056;28;20463;-55
2023/05/17 03:35:19;;;;;;;37.75;14.27;;;;;;;6.61;100.00;102378.34;5093780;28;20077;-55
2023/05/17 03:37:44;;;;;;;30.95;14.48;;;;;;;6.62;100.00;102379.22;5093805;28;20065;-54
2023/05/17 03:40:10;;;;;;;30.58;13.73;;;;;;;6.58;100.00;102384.13;5093034;28;20016;-55
2023/05/17 03:42:35;;;;;;;29.08;13.57;;;;;;;6.54;100.00;102392.34;5093288;28;20479;-55
2023/05/17 03:45:01;;;;;;;29.92;13.45;;;;;;;6.56;100.00;102390.81;5093492;28;20026;-56
2023/05/17 03:47:26;;;;;;;36.53;13.52;;;;;;;6.47;100.00;102395.28;5092703;28;20065;-54
2023/05/17 03:49:52;;;;;;;34.33;13.35;;;;;;;6.47;100.00;102386.69;5093539;28;20073;-54
2023/05/17 03:52:17;;;;;;;31.98;12.77;;;;;;;6.37;100.00;102390.28;5093396;28;20030;-55
2023/05/17 03:54:42;;;;;;;33.83;13.90;;;;;;;6.45;100.00;102396.84;5092872;28;20054;-55
2023/05/17 03:57:08;;;;;;;28.17;13.02;;;;;;;6.36;100.00;102393.63;5093502;28;20028;-55
2023/05/17 03:59:33;;;;;;;29.90;12.75;;;;;;;6.28;100.00;102403.31;5092965;28;20024;-55
2023/05/17 04:01:58;;;;;;;30.85;12.68;;;;;;;6.25;100.00;102409.09;5092528;28;20028;-54
2023/05/17 04:04:23;;;;;;;28.25;12.82;;;;;;;6.26;100.00;102410.88;5093225;28;20487;-54
2023/05/17 04:06:49;;;;;;;35.90;13.75;;;;;;;6.30;100.00;102405.97;5093431;28;20036;-55
2023/05/17 04:09:14;;;;;;;31.63;12.00;;;;;;;6.30;100.00;102408.53;5091246;28;20061;-56
2023/05/17 04:11:42;;;;;;;30.05;13.15;;;;;;;6.17;100.00;102410.22;5093126;28;20459;-54
2023/05/17 04:14:08;;;;;;;26.20;13.05;;;;;;;6.19;100.00;102413.78;5093235;28;20020;-55
2023/05/17 04:16:33;;;;;;;24.20;11.73;;;;;;;6.09;100.00;102407.13;5091890;28;20040;-55
2023/05/17 04:18:59;;;;;;;30.90;13.95;;;;;;;6.11;100.00;102409.78;5093355;28;20082;-54
2023/05/17 04:21:25;;;;;;;30.08;12.32;;;;;;;6.05;100.00;102409.31;5092635;28;20384;-56
2023/05/17 04:23:50;;;;;;;28.02;13.00;;;;;;;6.13;100.00;102417.56;5092278;28;20027;-53
2023/05/17 04:26:16;;;;;;;28.52;13.07;;;;;;;6.06;100.00;102416.22;5092412;28;20036;-54
2023/05/17 04:28:41;;;;;;;31.77;13.63;;;;;;;6.07;100.00;102423.13;5093062;28;20129;-54
2023/05/17 04:31:07;;;;;;;32.17;13.57;;;;;;;6.15;100.00;102429.69;5092472;28;20112;-53
2023/05/17 04:33:32;;;;;;;31.40;13.02;;;;;;;6.08;100.00;102432.56;5092756;28;20035;-54
2023/05/17 04:35:58;;;;;;;33.47;12.13;;;;;;;6.07;100.00;102430.81;5092965;28;20032;-53
2023/05/17 04:38:23;;;;;;;36.22;14.63;;;;;;;6.14;100.00;102442.38;5091863;28;20028;-54
2023/05/17 04:40:49;;;;;;;29.08;13.93;;;;;;;6.21;100.00;102440.38;5092889;28;20016;-53
2023/05/17 04:43:15;;;;;;;29.77;14.15;;;;;;;6.14;100.00;102440.72;5092001;28;20032;-54
2023/05/17 04:45:40;;;;;;;35.13;15.35;;;;;;;6.23;100.00;102446.50;5092967;28;20051;-54
2023/05/17 04:48:06;;;;;;;35.83;15.75;;;;;;;6.31;100.00;102444.50;5092977;28;20030;-55
2023/05/17 04:50:31;;;;;;;36.58;13.95;;;;;;;6.30;100.00;102446.94;5091778;28;20119;-54
2023/05/17 04:52:56;;;;;;;30.67;14.10;;;;;;;6.33;100.00;102453.19;5092767;28;20108;-54
2023/05/17 04:55:22;;;;;;;37.42;15.30;;;;;;;6.33;100.00;102462.56;5092578;28;20032;-54
2023/05/17 04:57:47;;;;;;;32.30;13.80;;;;;;;6.38;100.00;102453.53;5092028;28;20032;-54
2023/05/17 05:00:14;;;;;;;36.58;14.25;;;;;;;6.40;100.00;102468.22;5092840;28;20028;-52
2023/05/17 05:02:40;;;;;;;34.95;15.20;;;;;;;6.52;100.00;102460.53;5092599;28;20122;-55
2023/05/17 05:05:05;;;;;;;30.10;14.23;;;;;;;6.56;100.00;102464.22;5092029;28;20046;-55
2023/05/17 05:07:31;;;;;;;37.65;14.95;;;;;;;6.63;100.00;102466.41;5092477;28;20169;-55
2023/05/17 05:09:56;;;;;;;32.83;15.68;;;;;;;6.70;100.00;102470.31;5092592;28;20035;-55
2023/05/17 05:12:23;;;;;;;37.80;14.88;;;;;;;6.75;100.00;102476.66;5091505;28;20100;-55
2023/05/17 05:14:48;;;;;;;37.92;17.13;;;;;;;6.85;100.00;102476.53;5092744;28;20181;-54
2023/05/17 05:17:14;;;;;;;32.55;15.07;;;;;;;6.89;100.00;102482.75;5092502;28;20499;-55
2023/05/17 05:19:39;;;;;;;35.13;15.93;;;;;;;6.98;100.00;102479.97;5091694;28;20032;-53
2023/05/17 05:22:05;;;;;;;39.17;15.63;;;;;;;7.07;100.00;102481.50;5092556;28;20102;-54
2023/05/17 05:24:30;;;;;;;33.95;15.93;;;;;;;7.23;100.00;102486.03;5092261;28;20468;-55
2023/05/17 05:26:55;;;;;;;42.97;16.73;;;;;;;7.46;100.00;102494.41;5091629;28;20028;-54
2023/05/17 05:29:20;;;;;;;40.55;17.52;;;;;;;7.60;100.00;102492.78;5092286;28;20472;-55
2023/05/17 05:31:46;;;;;;;43.85;17.73;;;;;;;7.64;100.00;102493.91;5092548;28;20052;-54
2023/05/17 05:34:11;;;;;;;37.60;14.95;;;;;;;7.66;100.00;102502.59;5091850;28;20025;-54
2023/05/17 05:36:36;;;;;;;34.65;15.73;;;;;;;7.74;100.00;102498.88;5092223;28;20107;-55
2023/05/17 05:39:02;;;;;;;33.17;13.88;;;;;;;7.79;100.00;102500.06;5095410;28;20028;-56
2023/05/17 05:41:27;;;;;;;36.25;14.30;;;;;;;7.87;100.00;102498.91;5094877;28;20038;-54
2023/05/17 05:43:52;;;;;;;32.88;14.13;;;;;;;7.93;100.00;102502.66;5096166;28;20082;-54
2023/05/17 05:46:18;;;;;;;38.60;14.85;;;;;;;8.01;100.00;102502.41;5095878;28;20035;-55
2023/05/17 05:48:43;;;;;;;30.58;13.07;;;;;;;8.04;100.00;102506.84;5095306;28;20421;-54
2023/05/17 05:51:10;;;;;;;35.20;13.35;;;;;;;8.09;100.00;102510.63;5095942;28;20031;-54
2023/05/17 05:53:35;;;;;;;31.02;12.73;;;;;;;8.25;100.00;102509.97;5094815;28;20028;-53
2023/05/17 05:56:01;;;;;;;34.72;11.98;;;;;;;8.23;100.00;102514.97;5095870;28;20046;-55
2023/05/17 05:58:28;;;;;;;32.15;10.20;;;;;;;8.35;100.00;102520.06;5095513;28;20036;-53
2023/05/17 06:00:53;;;;;;;28.40;10.70;;;;;;;8.47;100.00;102514.88;5095116;28;20028;-54
2023/05/17 06:03:18;;;;;;;28.83;10.82;;;;;;;8.47;100.00;102525.13;5095307;28;20028;-54
2023/05/17 06:05:44;;;;;;;32.28;10.65;;;;;;;8.50;100.00;102530.47;5095679;28;20020;-54
2023/05/17 06:08:09;;;;;;;30.42;9.75;;;;;;;8.69;100.00;102536.81;5094868;28;20020;-54
2023/05/17 06:10:34;;;;;;;28.60;9.02;;;;;;;8.69;100.00;102529.97;5095202;28;20321;-54
2023/05/17 06:13:00;;;;;;;25.88;8.48;;;;;;;8.78;100.00;102536.50;5095736;28;20066;-55
2023/05/17 06:15:26;;;;;;;28.83;8.25;;;;;;;8.82;100.00;102534.22;5094531;28;20096;-55
2023/05/17 06:17:51;;;;;;;26.52;7.15;;;;;;;8.90;100.00;102548.47;5095121;28;20556;-53
2023/05/17 06:20:17;;;;;;;24.75;6.78;;;;;;;8.96;100.00;102541.91;5095008;28;20040;-54
2023/05/17 06:22:42;;;;;;;21.10;6.13;;;;;;;8.99;100.00;102549.84;5094402;28;20491;-54
2023/05/17 06:25:09;;;;;;;28.02;5.93;;;;;;;9.03;100.00;102556.97;5095131;28;20065;-56
2023/05/17 06:27:35;;;;;;;21.52;5.63;;;;;;;9.05;100.00;102558.84;5094829;28;20479;-54
2023/05/17 06:30:00;;;;;;;18.88;4.70;;;;;;;9.01;100.00;102559.44;5094476;28;20027;-55
2023/05/17 06:32:26;;;;;;;24.90;4.90;;;;;;;9.06;100.00;102558.06;5094883;28;20376;-55
2023/05/17 06:34:51;;;;;;;18.98;4.70;;;;;;;9.12;100.00;102562.69;5095135;28;20375;-55
2023/05/17 06:37:16;;;;;;;24.60;4.93;;;;;;;9.14;100.00;102561.09;5093939;28;20063;-56
2023/05/17 06:39:42;;;;;;;17.95;4.43;;;;;;;9.10;100.00;102558.22;5094761;28;20078;-55
2023/05/17 06:42:07;;;;;;;20.70;4.93;;;;;;;9.12;100.00;102556.66;5094753;28;20054;-54
2023/05/17 06:44:32;;;;;;;18.58;4.82;;;;;;;9.15;100.00;102560.28;5094021;28;20031;-53
2023/05/17 06:46:59;;;;;;;24.65;4.78;;;;;;;9.25;100.00;102558.31;5094988;28;20027;-54
2023/05/17 06:49:25;;;;;;;23.80;4.85;;;;;;;9.35;100.00;102564.13;5094114;28;20027;-54
2023/05/17 06:51:50;;;;;;;19.85;4.55;;;;;;;9.38;100.00;102571.16;5093909;28;20024;-53
2023/05/17 06:54:15;;;;;;;23.73;4.32;;;;;;;9.60;100.00;102564.75;5094354;28;20026;-55
2023/05/17 06:56:41;;;;;;;21.20;4.88;;;;;;;9.87;100.00;102566.41;5094670;28;20035;-54
2023/05/17 06:59:07;;;;;;;23.00;4.75;;;;;;;10.08;100.00;102563.34;5093879;28;20083;-53
2023/05/17 07:01:32;;;;;;;17.30;4.60;;;;;;;10.31;100.00;102567.25;5094222;28;20060;-53
2023/05/17 07:03:57;;;;;;;15.75;3.92;;;;;;;10.47;95.53;102570.75;5093755;28;20035;-53
2023/05/17 07:06:22;;;;;;;14.98;3.97;;;;;;;10.64;91.95;102564.00;5094166;28;20020;-54
2023/05/17 07:08:48;;;;;;;20.77;4.10;;;;;;;10.60;90.12;102572.38;5094378;28;20438;-55
2023/05/17 07:11:13;;;;;;;17.42;4.45;;;;;;;10.64;92.01;102574.31;5093486;28;20519;-55
2023/05/17 07:13:38;;;;;;;17.55;3.67;;;;;;;10.33;86.65;102582.84;5093840;28;20024;-54
2023/05/17 07:16:06;;;;;;;19.40;4.18;;;;;;;10.11;87.37;102586.72;5094291;28;20496;-54
2023/05/17 07:18:31;;;;;;;18.05;4.72;;;;;;;10.11;88.69;102586.72;5093085;28;20043;-55
2023/05/17 07:20:57;;;;;;;20.23;4.60;;;;;;;10.27;89.07;102578.19;5094145;28;20464;-54
2023/05/17 07:23:22;;;;;;;19.25;4.55;;;;;;;10.41;88.29;102580.75;5093798;28;20100;-54
2023/05/17 07:25:47;;;;;;;19.08;4.25;;;;;;;10.65;86.79;102586.41;5093453;28;20075;-54
2023/05/17 07:28:13;;;;;;;15.98;3.83;;;;;;;10.57;82.69;102582.50;5094054;28;20506;-54
2023/05/17 07:30:38;;;;;;;18.63;4.30;;;;;;;10.73;82.33;102585.19;5093829;28;20034;-54
2023/05/17 07:33:03;;;;;;;20.30;4.18;;;;;;;10.80;83.06;102597.59;5093236;28;20031;-53
2023/05/17 07:35:28;;;;;;;15.93;3.63;;;;;;;10.90;81.70;102592.94;5093447;28;20085;-55
2023/05/17 07:37:54;;;;;;;14.63;3.65;;;;;;;10.95;83.51;102596.69;5093728;28;20028;-53
2023/05/17 07:40:20;;;;;;;19.73;4.70;;;;;;;11.00;80.24;102606.47;5092769;28;20036;-55
2023/05/17 07:42:46;;;;;;;14.73;3.85;;;;;;;11.08;80.78;102599.16;5093878;28;20043;-54
2023/05/17 07:45:11;;;;;;;17.35;3.63;;;;;;;11.06;82.18;102612.78;5093769;28;20012;-54
2023/05/17 07:47:36;;;;;;;14.57;4.00;;;;;;;11.18;78.89;102609.19;5092763;28;20043;-55
2023/05/17 07:50:03;;;;;;;19.00;3.58;;;;;;;11.44;80.73;102604.56;5093624;28;20039;-54
2023/05/17 07:52:28;;;;;;;15.38;3.42;;;;;;;11.66;76.92;102601.44;5093214;28;20024;-54
2023/05/17 07:54:53;;;;;;;14.35;3.33;;;;;;;12.03;79.72;102605.09;5092732;28;20387;-55
2023/05/17 07:57:19;;;;;;;13.25;3.55;;;;;;;12.06;72.04;102607.84;5093329;28;20115;-55
2023/05/17 07:59:44;;;;;;;17.05;3.85;;;;;;;12.19;74.65;102607.66;5093032;28;20059;-55
2023/05/17 08:02:10;;;;;;;16.40;3.60;;;;;;;12.05;69.66;102605.19;5092484;28;20024;-55
2023/05/17 08:04:35;;;;;;;20.73;3.75;;;;;;;12.34;75.89;102606.66;5093016;28;20035;-54
2023/05/17 08:07:01;;;;;;;17.00;3.75;;;;;;;12.21;71.84;102612.03;5093273;28;20024;-54
2023/05/17 08:09:26;;;;;;;15.82;3.50;;;;;;;11.92;72.69;102608.81;5092172;28;20020;-55
2023/05/17 08:11:51;;;;;;;17.60;4.13;;;;;;;12.04;74.83;102612.03;5093476;28;20028;-55
2023/05/17 08:14:17;;;;;;;16.30;3.50;;;;;;;12.07;71.25;102617.41;5092141;28;20020;-53
2023/05/17 08:16:45;;;;;;;14.93;3.15;;;;;;;12.15;70.29;102621.25;5093072;28;20040;-54
2023/05/17 08:19:13;;;;;;;14.50;3.45;;;;;;;12.12;70.69;102618.53;5093110;28;20052;-56
2023/05/17 08:21:40;;;;;;;16.05;3.20;;;;;;;11.79;67.42;102608.16;5092067;28;20038;-55
2023/05/17 08:24:06;;;;;;;12.48;3.15;;;;;;;11.42;68.34;102621.66;5093099;28;20142;-55
2023/05/17 08:26:32;;;;;;;13.35;3.35;;;;;;;11.48;71.33;102627.16;5092995;28;20460;-55
2023/05/17 08:28:57;;;;;;;15.65;3.58;;;;;;;11.51;71.74;102621.28;5092372;28;20023;-53
2023/05/17 08:31:22;;;;;;;16.15;3.20;;;;;;;11.45;72.32;102621.84;5092768;28;20035;-55
2023/05/17 08:33:47;;;;;;;14.25;3.35;;;;;;;11.53;74.09;102617.97;5092997;28;20440;-54
2023/05/17 08:36:13;;;;;;;15.77;3.08;;;;;;;11.69;72.22;102619.66;5092060;28;20032;-54
2023/05/17 08:38:38;;;;;;;10.88;2.55;;;;;;;11.84;66.40;102621.31;5092445;28;20097;-52
2023/05/17 08:41:03;;;;;;;11.57;2.42;;;;;;;12.16;69.12;102614.38;5093037;28;20024;-55
2023/05/17 08:43:30;;;;;;;13.70;3.28;;;;;;;12.31;67.00;102617.75;5091888;28;20074;-55
2023/05/17 08:45:56;;;;;;;13.02;2.88;;;;;;;12.54;68.82;102612.84;5092927;28;20028;-55
2023/05/17 08:48:23;;;;;;;10.38;2.60;;;;;;;12.68;63.65;102616.13;5092511;28;20052;-55
2023/05/17 08:50:49;;;;;;;14.73;3.00;;;;;;;12.99;64.83;102617.63;5092113;28;20016;-55
2023/05/17 08:53:16;;;;;;;11.23;2.50;;;;;;;13.08;60.25;102620.66;5092694;28;20383;-54
2023/05/17 08:55:46;;;;;;;11.10;2.83;;;;;;;13.34;60.46;102629.63;5092917;28;20270;-55
2023/05/17 08:58:13;;;;;;;13.70;3.13;;;;;;;13.44;61.54;102633.59;5092016;28;20028;-55
2023/05/17 09:00:39;;;;;;;10.82;2.67;;;;;;;13.64;61.46;102616.34;5092576;28;20020;-55
2023/05/17 09:03:05;;;;;;;10.63;2.63;;;;;;;13.48;60.27;102629.44;5092789;28;20046;-55
2023/05/17 09:05:30;;;;;;;7.70;2.30;;;;;;;13.40;59.21;102626.50;5091629;28;20024;-55
2023/05/17 09:07:58;;;;;;;11.25;2.78;;;;;;;12.91;59.16;102634.47;5092823;28;20399;-55
2023/05/17 09:10:23;;;;;;;10.25;2.95;;;;;;;12.62;59.05;102636.50;5091818;28;20031;-56
2023/05/17 09:12:49;;;;;;;12.43;2.42;;;;;;;12.95;60.16;102633.78;5095433;28;20024;-55
2023/05/17 09:15:19;;;;;;;13.30;2.83;;;;;;;13.22;59.87;102630.75;5096612;28;20023;-54
2023/05/17 09:17:55;;;;;;;14.60;2.83;;;;;;;13.68;59.92;102632.94;5095507;28;20075;-54
2023/05/17 09:20:35;;;;;;;13.27;3.40;;;;;;;13.61;62.21;102633.47;5095983;28;20059;-56
2023/05/17 09:23:05;;;;;;;11.90;3.05;;;;;;;13.11;58.32;102636.31;5096616;28;20031;-55
2023/05/17 09:25:31;;;;;;;13.68;3.15;;;;;;;12.80;60.28;102632.25;5095243;28;20405;-55
2023/05/17 09:28:03;;;;;;;13.48;2.85;;;;;;;12.96;62.33;102632.97;5096198;28;20026;-55
2023/05/17 09:30:30;;;;;;;11.90;3.30;;;;;;;13.22;61.42;102630.75;5096115;28;20024;-55
2023/05/17 09:32:56;;;;;;;14.35;3.30;;;;;;;13.50;59.29;102633.88;5095517;28;20024;-53
2023/05/17 09:35:29;;;;;;;15.40;2.95;;;;;;;13.94;60.45;102633.22;5096049;28;20078;-55
2023/05/17 09:38:04;;;;;;;14.25;2.85;;;;;;;14.26;55.74;102631.16;5096214;28;20054;-54
2023/05/17 09:40:29;;;;;;;11.20;2.90;;;;;;;14.40;54.73;102630.03;5095177;28;20475;-54
2023/05/17 09:42:55;;;;;;;12.38;3.00;;;;;;;14.47;55.26;102623.38;5096178;28;20059;-54
2023/05/17 09:45:22;;;;;;;9.95;2.88;;;;;;;14.88;55.25;102631.16;5095609;28;20036;-55
2023/05/17 09:47:47;;;;;;;14.00;3.30;;;;;;;14.96;53.99;102625.44;5095403;28;20030;-56
2023/05/17 09:50:17;;;;;;;11.77;2.83;;;;;;;15.24;52.85;102620.44;5096007;28;20111;-55
2023/05/17 09:52:43;;;;;;;12.82;2.92;;;;;;;15.07;51.73;102623.25;5095013;28;20476;-56
2023/05/17 09:55:10;;;;;;;10.10;2.50;;;;;;;15.38;51.26;102623.59;5095916;28;20028;-55
2023/05/17 09:57:37;;;;;;;9.48;2.63;;;;;;;16.11;49.62;102625.44;5095583;28;20095;-56
2023/05/17 10:00:12;;;;;;;10.77;2.85;;;;;;;16.94;50.71;102623.84;5094796;28;20056;-54
2023/05/17 10:02:41;;;;;;;8.30;2.33;;;;;;;16.90;51.23;102633.28;5095591;28;20028;-55
2023/05/17 10:05:11;;;;;;;10.18;2.45;;;;;;;16.13;48.68;102631.53;5095701;28;20027;-55
2023/05/17 10:07:38;;;;;;;11.70;3.00;;;;;;;15.43;48.59;102630.72;5094602;28;20031;-56
2023/05/17 10:10:05;;;;;;;10.23;2.60;;;;;;;15.26;50.89;102631.75;5095472;28;20030;-56
2023/05/17 10:12:33;;;;;;;12.30;2.92;;;;;;;16.36;50.00;102627.97;5095089;28;20417;-56
2023/05/17 10:15:00;;;;;;;10.85;2.38;;;;;;;17.14;46.41;102621.84;5094708;28;20020;-56
2023/05/17 10:17:28;;;;;;;6.65;2.13;;;;;;;17.42;43.26;102639.22;5095039;28;20087;-55
2023/05/17 10:19:54;;;;;;;8.05;2.25;;;;;;;17.85;41.26;102636.97;5095179;28;20399;-55
2023/05/17 10:22:21;;;;;;;8.73;2.92;;;;;;;18.82;40.09;102650.81;5094223;28;20024;-56
2023/05/17 10:24:47;;;;;;;9.15;2.80;;;;;;;19.60;38.99;102633.44;5094415;28;20040;-55
2023/05/17 10:27:13;;;;;;;9.65;2.30;;;;;;;20.31;37.25;102640.03;5095420;28;20109;-55
2023/05/17 10:29:40;;;;;;;10.35;2.25;;;;;;;20.52;38.53;102639.53;5094055;28;20039;-55
2023/05/17 10:32:06;;;;;;;9.50;1.90;;;;;;;19.29;36.85;102635.41;5095317;28;20027;-56
2023/05/17 10:34:37;;;;;;;6.95;1.98;;;;;;;19.30;36.74;102634.56;5094847;28;20024;-56
2023/05/17 10:37:03;;;;;;;8.75;2.25;;;;;;;19.90;35.15;102633.19;5094370;28;20028;-55
2023/05/17 10:39:28;;;;;;;7.20;2.00;;;;;;;20.39;34.98;102627.97;5094532;28;20035;-55
2023/05/17 10:41:56;;;;;;;9.60;2.03;;;;;;;20.74;34.18;102636.44;5094125;28;20106;-56
2023/05/17 10:44:22;;;;;;;8.45;2.20;;;;;;;20.92;32.46;102625.34;5094700;28;20102;-55
2023/05/17 10:46:53;;;;;;;9.43;2.17;;;;;;;21.46;33.61;102616.47;5094880;28;20030;-56
2023/05/17 10:49:18;;;;;;;8.43;2.10;;;;;;;22.03;31.24;102619.75;5093865;28;20028;-56
2023/05/17 10:51:45;;;;;;;7.47;1.70;;;;;;;22.38;31.48;102620.13;5094738;28;20361;-56
2023/05/17 10:54:20;;;;;;;11.52;1.90;;;;;;;22.70;30.56;102617.75;5094762;28;20020;-56
2023/05/17 10:56:49;;;;;;;6.35;1.60;;;;;;;23.05;29.23;102618.81;5093808;28;20028;-54
2023/05/17 10:59:20;;;;;;;8.02;2.15;;;;;;;22.74;29.68;102618.66;5094624;28;20032;-54
2023/05/17 11:01:53;;;;;;;8.13;1.85;;;;;;;22.33;30.94;102613.00;5094496;28;20052;-54
2023/05/17 11:04:26;;;;;;;7.07;1.80;;;;;;;22.49;32.55;102615.81;5093292;28;20115;-56
2023/05/17 11:07:19;;;;;;;8.68;2.25;;;;;;;22.76;31.17;102606.38;5094638;28;20028;-55
2023/05/17 11:09:48;;;;;;;8.45;2.03;;;;;;;22.68;29.90;102601.97;5094349;28;20043;-56
2023/05/17 11:12:14;;;;;;;6.90;1.52;;;;;;;22.91;31.58;102601.22;5093666;28;20024;-56